createdAt,value
2018-01-20T00:20:45.574Z,5.75
2018-01-20T00:23:14.072Z,5.85
2018-01-20T00:25:41.686Z,5.91
2018-01-20T00:28:09.385Z,5.96
2018-01-20T00:30:37.060Z,5.91
2018-01-20T00:33:04.716Z,5.89
2018-01-20T00:35:33.081Z,6.27
2018-01-20T00:38:00.761Z,5.80
2018-01-20T00:40:28.387Z,5.87
2018-01-20T00:42:56.064Z,5.77
2018-01-20T00:45:23.735Z,6.15
2018-01-20T00:47:52.085Z,6.16
2018-01-20T00:50:19.752Z,5.98
2018-01-20T00:52:47.608Z,5.96
2018-01-20T00:55:15.184Z,5.83
2018-01-20T00:57:43.011Z,5.65
2018-01-20T01:00:11.658Z,5.65
2018-01-20T01:02:39.518Z,5.69
2018-01-20T01:05:07.159Z,5.52
2018-01-20T01:07:34.815Z,5.76
2018-01-20T01:10:02.387Z,5.31
2018-01-20T01:12:30.045Z,5.49
2018-01-20T01:14:58.775Z,5.09
2018-01-20T01:17:27.356Z,5.19
2018-01-20T01:19:55.015Z,5.01
2018-01-20T01:22:22.965Z,5.08
2018-01-20T01:24:50.578Z,5.32
2018-01-20T01:27:18.169Z,5.55
2018-01-20T01:29:45.796Z,5.62
2018-01-20T01:32:13.802Z,5.47
2018-01-20T01:34:41.400Z,5.82
2018-01-20T01:37:08.997Z,5.50
2018-01-20T01:39:36.668Z,5.92
2018-01-20T01:42:04.261Z,5.26
2018-01-20T01:44:32.535Z,5.60
2018-01-20T01:47:00.163Z,5.26
2018-01-20T01:49:28.056Z,5.76
2018-01-20T01:51:55.678Z,5.98
2018-01-20T01:54:23.492Z,5.54
2018-01-20T01:56:51.143Z,5.49
2018-01-20T01:59:18.795Z,5.40
2018-01-20T02:01:46.516Z,5.90
2018-01-20T02:04:23.776Z,5.54
2018-01-20T02:06:51.841Z,5.59
2018-01-20T02:09:19.491Z,5.70
2018-01-20T02:11:47.176Z,5.41
2018-01-20T02:14:14.982Z,5.11
2018-01-20T02:16:42.581Z,5.18
2018-01-20T02:19:10.366Z,5.38
2018-01-20T02:21:38.167Z,5.22
2018-01-20T02:24:05.962Z,5.53
2018-01-20T02:26:33.603Z,5.36
2018-01-20T02:29:01.389Z,5.11
2018-01-20T02:31:29.098Z,5.10
2018-01-20T02:33:56.744Z,4.99
2018-01-20T02:36:25.242Z,5.22
2018-01-20T02:38:53.017Z,5.12
2018-01-20T02:41:20.686Z,5.49
2018-01-20T02:43:48.300Z,5.48
2018-01-20T02:46:16.877Z,5.32
2018-01-20T02:48:44.563Z,5.42
2018-01-20T02:51:12.270Z,5.20
2018-01-20T02:53:40.038Z,5.69
2018-01-20T02:56:07.713Z,5.79
2018-01-20T02:58:35.308Z,5.44
2018-01-20T03:01:03.093Z,4.58
2018-01-20T03:03:30.703Z,4.99
2018-01-20T03:05:58.318Z,5.14
2018-01-20T03:08:26.055Z,5.66
2018-01-20T03:10:53.644Z,5.18
2018-01-20T03:13:21.254Z,5.14
2018-01-20T03:15:49.061Z,5.58
2018-01-20T03:18:16.694Z,5.37
2018-01-20T03:20:44.286Z,5.04
2018-01-20T03:23:11.980Z,5.20
2018-01-20T03:25:39.622Z,5.13
2018-01-20T03:28:07.253Z,5.14
2018-01-20T03:30:35.001Z,5.05
2018-01-20T03:33:02.599Z,4.86
2018-01-20T03:35:30.585Z,5.29
2018-01-20T03:37:58.331Z,5.56
2018-01-20T03:40:25.952Z,5.34
2018-01-20T03:42:53.570Z,4.25
2018-01-20T03:45:21.265Z,4.73
2018-01-20T03:47:49.516Z,5.16
2018-01-20T03:50:17.074Z,5.19
2018-01-20T03:52:44.806Z,4.81
2018-01-20T03:55:12.377Z,4.68
2018-01-20T03:57:40.937Z,4.48
2018-01-20T04:00:08.685Z,4.50
2018-01-20T04:02:36.263Z,4.80
2018-01-20T04:05:04.075Z,5.30
2018-01-20T04:07:31.891Z,5.28
2018-01-20T04:09:59.465Z,5.55
2018-01-20T04:12:27.370Z,5.41
2018-01-20T04:14:55.099Z,5.19
2018-01-20T04:17:23.530Z,5.53
2018-01-20T04:19:51.227Z,5.25
2018-01-20T04:22:19.084Z,4.97
2018-01-20T04:24:46.682Z,5.34
2018-01-20T04:27:14.288Z,5.70
2018-01-20T04:29:42.023Z,5.39
2018-01-20T04:32:09.864Z,5.66
2018-01-20T04:34:37.534Z,5.93
2018-01-20T04:37:05.182Z,5.64
2018-01-20T04:39:33.167Z,5.42
2018-01-20T04:42:00.835Z,5.47
2018-01-20T04:44:28.666Z,5.62
2018-01-20T04:46:56.435Z,5.56
2018-01-20T04:49:24.016Z,5.55
2018-01-20T04:51:51.652Z,5.78
2018-01-20T04:54:19.604Z,5.66
2018-01-20T04:56:47.257Z,5.65
2018-01-20T04:59:14.837Z,5.93
2018-01-20T05:01:43.815Z,5.75
2018-01-20T05:04:11.424Z,5.74
2018-01-20T05:06:39.008Z,5.60
2018-01-20T05:09:06.722Z,5.76
2018-01-20T05:11:34.320Z,5.73
2018-01-20T05:14:01.962Z,5.89
2018-01-20T05:16:29.700Z,5.79
2018-01-20T05:18:57.299Z,5.48
2018-01-20T05:21:24.994Z,5.88
2018-01-20T05:23:52.753Z,5.67
2018-01-20T05:26:20.383Z,5.83
2018-01-20T05:28:49.187Z,5.64
2018-01-20T05:31:16.998Z,5.73
2018-01-20T05:33:44.686Z,5.73
2018-01-20T05:36:12.281Z,5.52
2018-01-20T05:38:40.070Z,5.14
2018-01-20T05:41:07.777Z,4.66
2018-01-20T05:43:35.390Z,4.54
2018-01-20T05:46:03.238Z,4.77
2018-01-20T05:48:30.882Z,5.17
2018-01-20T05:50:58.515Z,5.35
2018-01-20T05:53:26.253Z,5.25
2018-01-20T05:55:54.046Z,5.36
2018-01-20T05:58:21.734Z,5.40
2018-01-20T06:00:49.512Z,5.51
2018-01-20T06:03:18.081Z,6.00
2018-01-20T06:05:45.869Z,6.16
2018-01-20T06:08:13.698Z,5.47
2018-01-20T06:10:41.328Z,5.82
2018-01-20T06:13:09.913Z,5.49
2018-01-20T06:15:37.742Z,5.80
2018-01-20T06:18:05.391Z,5.61
2018-01-20T06:20:33.062Z,5.68
2018-01-20T06:23:00.811Z,5.52
2018-01-20T06:25:28.504Z,5.84
2018-01-20T06:27:56.142Z,5.86
2018-01-20T06:30:23.851Z,5.77
2018-01-20T06:32:51.570Z,5.92
2018-01-20T06:35:19.475Z,5.82
2018-01-20T06:37:47.258Z,5.54
2018-01-20T06:40:15.191Z,5.68
2018-01-20T06:42:42.835Z,5.45
2018-01-20T06:45:10.601Z,5.65
2018-01-20T06:47:38.221Z,5.55
2018-01-20T06:50:06.646Z,5.47
2018-01-20T06:52:34.496Z,5.73
2018-01-20T06:55:02.131Z,5.95
2018-01-20T06:57:29.928Z,6.08
2018-01-20T06:59:58.017Z,5.95
2018-01-20T07:02:26.611Z,5.70
2018-01-20T07:04:54.211Z,6.19
2018-01-20T07:07:21.996Z,6.30
2018-01-20T07:09:49.712Z,5.82
2018-01-20T07:12:17.648Z,5.69
2018-01-20T07:14:45.271Z,5.52
2018-01-20T07:17:13.085Z,5.76
2018-01-20T07:19:40.698Z,6.08
2018-01-20T07:22:08.416Z,5.38
2018-01-20T07:24:36.208Z,5.92
2018-01-20T07:27:04.911Z,6.28
2018-01-20T07:29:32.503Z,8.72
2018-01-20T07:32:00.265Z,7.74
2018-01-20T07:34:27.981Z,6.65
2018-01-20T07:36:55.615Z,6.31
2018-01-20T07:39:23.577Z,7.15
2018-01-20T07:41:51.151Z,6.82
2018-01-20T07:44:18.772Z,6.99
2018-01-20T07:46:46.496Z,7.14
2018-01-20T07:49:14.301Z,7.40
2018-01-20T07:51:41.940Z,7.59
2018-01-20T07:54:10.767Z,6.86
2018-01-20T07:56:38.922Z,6.60
2018-01-20T07:59:06.541Z,7.35
2018-01-20T08:01:35.292Z,7.35
2018-01-20T08:04:16.104Z,7.39
2018-01-20T08:06:45.074Z,7.37
2018-01-20T08:09:37.321Z,7.35
2018-01-20T08:12:05.552Z,7.82
2018-01-20T08:14:34.162Z,7.77
2018-01-20T08:17:03.664Z,7.45
2018-01-20T08:19:31.723Z,7.39
2018-01-20T08:21:59.337Z,8.84
2018-01-20T08:24:27.052Z,7.62
2018-01-20T08:26:55.582Z,7.83
2018-01-20T08:29:23.243Z,7.51
2018-01-20T08:31:51.002Z,7.20
2018-01-20T08:34:18.653Z,7.37
2018-01-20T08:36:46.497Z,7.49
2018-01-20T08:39:16.771Z,7.47
2018-01-20T08:41:44.630Z,7.39
2018-01-20T08:44:12.301Z,8.70
2018-01-20T08:46:39.959Z,9.30
2018-01-20T08:49:07.570Z,9.77
2018-01-20T08:51:36.672Z,9.48
2018-01-20T08:54:04.670Z,9.15
2018-01-20T08:56:32.464Z,9.03
2018-01-20T08:59:00.063Z,8.70
2018-01-20T09:01:27.759Z,8.25
2018-01-20T09:03:55.381Z,8.00
2018-01-20T09:06:23.183Z,8.27
2018-01-20T09:08:50.910Z,8.55
2018-01-20T09:11:22.110Z,8.14
2018-01-20T09:13:49.915Z,8.40
2018-01-20T09:16:17.717Z,8.34
2018-01-20T09:18:45.340Z,8.47
2018-01-20T09:21:12.985Z,8.45
2018-01-20T09:23:41.564Z,8.64
2018-01-20T09:26:09.243Z,8.44
2018-01-20T09:28:36.999Z,8.50
2018-01-20T09:31:05.508Z,8.43
2018-01-20T09:33:38.100Z,8.66
2018-01-20T09:36:06.662Z,8.47
2018-01-20T09:38:34.284Z,8.28
2018-01-20T09:41:01.907Z,8.37
2018-01-20T09:43:30.231Z,8.63
2018-01-20T09:46:09.138Z,9.10
2018-01-20T09:48:36.881Z,9.06
2018-01-20T09:51:04.517Z,9.25
2018-01-20T09:53:32.238Z,9.16
2018-01-20T09:56:00.084Z,9.20
2018-01-20T09:58:27.730Z,9.35
2018-01-20T10:00:55.537Z,8.38
2018-01-20T10:03:23.652Z,9.04
2018-01-20T10:05:51.386Z,9.28
2018-01-20T10:08:21.770Z,9.45
2018-01-20T10:10:52.890Z,10.38
2018-01-20T10:13:51.386Z,10.03
2018-01-20T10:19:49.482Z,10.01
2018-01-20T13:27:45.684Z,6.83
2018-01-20T13:30:18.246Z,6.27
2018-01-20T13:35:38.715Z,6.55
2018-01-20T13:38:06.395Z,6.40
2018-01-20T13:40:35.689Z,6.38
2018-01-20T13:43:06.222Z,6.27
2018-01-20T13:45:35.620Z,6.35
2018-01-20T13:48:05.832Z,6.22
2018-01-20T13:50:35.202Z,6.95
2018-01-20T13:53:03.215Z,6.65
2018-01-20T13:55:31.036Z,6.63
2018-01-20T13:57:58.978Z,6.51
2018-01-20T14:00:26.826Z,6.57
2018-01-20T14:02:54.547Z,6.59
2018-01-20T14:05:22.252Z,6.41
2018-01-20T14:07:50.033Z,6.54
2018-01-20T14:10:17.886Z,6.40
2018-01-20T14:12:56.362Z,6.47
2018-01-20T14:15:24.521Z,6.44
2018-01-20T14:17:52.177Z,6.20
2018-01-20T14:20:19.904Z,6.17
2018-01-20T14:22:47.610Z,6.01
2018-01-20T14:25:17.309Z,6.10
2018-01-20T14:27:45.113Z,5.90
2018-01-20T14:30:13.211Z,5.98
2018-01-20T14:32:41.140Z,6.17
2018-01-20T14:35:09.010Z,5.93
2018-01-20T14:37:36.902Z,6.10
2018-01-20T14:40:05.116Z,6.11
2018-01-20T14:42:33.139Z,5.93
2018-01-20T14:45:00.948Z,5.65
2018-01-20T14:47:28.853Z,5.40
2018-01-20T14:49:57.561Z,5.49
2018-01-20T14:52:25.463Z,5.53
2018-01-20T14:54:53.397Z,5.31
2018-01-20T14:57:21.713Z,5.27
2018-01-20T14:59:49.658Z,5.11
2018-01-20T15:02:17.897Z,4.88
2018-01-20T15:04:45.638Z,4.97
2018-01-20T15:07:13.739Z,4.64
2018-01-20T15:09:42.846Z,4.75
2018-01-20T15:12:10.939Z,4.59
2018-01-20T15:14:40.129Z,4.64
2018-01-20T15:17:08.743Z,4.54
2018-01-20T15:19:37.292Z,4.68
2018-01-20T15:22:05.838Z,4.69
2018-01-20T15:24:33.686Z,4.65
2018-01-20T15:27:01.639Z,4.50
2018-01-20T15:29:29.358Z,4.38
2018-01-20T15:31:58.182Z,4.54
2018-01-20T15:34:25.986Z,4.61
2018-01-20T15:36:54.195Z,4.49
2018-01-20T15:39:22.006Z,4.54
2018-01-20T15:41:50.023Z,4.58
2018-01-20T15:44:17.800Z,4.51
2018-01-20T15:46:46.101Z,4.45
2018-01-20T15:49:14.050Z,4.24
2018-01-20T15:51:42.550Z,4.34
2018-01-20T15:54:10.897Z,4.33
2018-01-20T15:56:46.568Z,4.41
2018-01-20T15:59:15.077Z,4.34
2018-01-20T16:01:43.146Z,4.51
2018-01-20T16:04:10.885Z,4.35
2018-01-20T16:06:41.675Z,4.60
2018-01-20T16:09:09.380Z,4.47
2018-01-20T16:11:37.121Z,4.59
2018-01-20T16:14:05.688Z,4.58
2018-01-20T16:16:35.166Z,4.74
2018-01-20T16:19:10.521Z,4.07
2018-01-20T16:21:38.218Z,4.65
2018-01-20T16:24:05.968Z,4.53
2018-01-20T16:26:33.597Z,4.58
2018-01-20T16:29:01.560Z,4.38
2018-01-20T16:31:29.363Z,4.58
2018-01-20T16:33:57.356Z,4.83
2018-01-20T16:36:25.263Z,4.82
2018-01-20T16:38:53.087Z,4.99
2018-01-20T16:41:21.971Z,4.91
2018-01-20T16:43:50.126Z,4.96
2018-01-20T16:46:18.718Z,5.12
2018-01-20T16:48:46.354Z,5.07
2018-01-20T16:51:15.632Z,5.12
2018-01-20T16:53:43.572Z,5.06
2018-01-20T16:56:11.321Z,4.97
2018-01-20T16:58:53.973Z,4.94
2018-01-20T17:01:21.739Z,5.11
2018-01-20T17:03:49.761Z,4.99
2018-01-20T17:06:17.782Z,4.82
2018-01-20T17:08:45.670Z,4.90
2018-01-20T17:11:13.415Z,4.94
2018-01-20T17:13:46.667Z,5.03
2018-01-20T17:16:14.324Z,4.67
2018-01-20T17:18:43.264Z,4.93
2018-01-20T17:21:12.103Z,5.00
2018-01-20T17:23:40.246Z,4.78
2018-01-20T17:26:08.136Z,4.96
2018-01-20T17:28:36.530Z,5.03
2018-01-20T17:31:04.390Z,5.05
2018-01-20T17:33:32.166Z,5.13
2018-01-20T17:36:00.200Z,4.89
2018-01-20T17:38:28.201Z,4.72
2018-01-20T17:40:57.557Z,4.97
2018-01-20T17:43:26.032Z,4.78
2018-01-20T17:45:54.549Z,5.12
2018-01-20T17:48:23.528Z,5.13
2018-01-20T17:50:51.417Z,4.76
2018-01-20T17:53:19.775Z,5.32
2018-01-20T17:55:48.125Z,5.32
2018-01-20T17:58:20.983Z,5.26
2018-01-20T18:00:49.010Z,5.53
2018-01-20T18:03:19.160Z,5.56
2018-01-20T18:05:47.055Z,5.48
2018-01-20T18:08:15.340Z,5.53
2018-01-20T18:10:43.701Z,5.46
2018-01-20T18:13:11.375Z,5.07
2018-01-20T18:15:39.786Z,5.52
2018-01-20T18:18:07.423Z,5.29
2018-01-20T18:20:35.955Z,5.51
2018-01-20T18:23:03.743Z,5.51
2018-01-20T18:25:31.755Z,5.46
2018-01-20T18:27:59.574Z,5.44
2018-01-20T18:30:29.796Z,5.22
2018-01-20T18:32:59.248Z,5.27
2018-01-20T18:35:28.161Z,5.27
2018-01-20T18:41:02.436Z,4.94
2018-01-20T18:43:30.306Z,4.88
2018-01-20T18:45:57.948Z,4.84
2018-01-20T18:48:26.815Z,4.90
2018-01-20T18:51:02.761Z,4.79
2018-01-20T18:53:51.355Z,4.86
2018-01-20T18:56:19.837Z,4.79
2018-01-20T18:58:47.557Z,4.73
2018-01-20T19:01:15.723Z,4.68
2018-01-20T19:03:43.390Z,4.70
2018-01-20T19:06:12.423Z,4.59
2018-01-20T19:08:41.532Z,4.63
2018-01-20T19:11:09.205Z,4.67
2018-01-20T19:13:37.421Z,4.07
2018-01-20T19:16:06.607Z,4.54
2018-01-20T19:18:35.116Z,4.69
2018-01-20T19:21:04.221Z,4.59
2018-01-20T19:23:37.647Z,4.68
2018-01-20T19:26:05.259Z,4.12
2018-01-20T19:28:34.273Z,4.58
2018-01-20T19:31:02.217Z,4.43
2018-01-20T19:33:29.959Z,4.59
2018-01-20T19:35:57.699Z,4.50
2018-01-20T19:38:26.008Z,4.57
2018-01-20T19:41:24.806Z,4.48
2018-01-20T19:43:58.040Z,4.34
2018-01-20T19:46:27.331Z,4.49
2018-01-20T19:48:54.943Z,4.41
2018-01-20T19:51:22.712Z,4.63
2018-01-20T19:53:55.459Z,4.46
2018-01-20T19:56:23.388Z,4.52
2018-01-20T19:58:51.755Z,4.50
2018-01-20T20:01:20.476Z,4.41
2018-01-20T20:03:48.950Z,4.57
2018-01-20T20:06:16.850Z,4.55
2018-01-20T20:08:45.886Z,4.50
2018-01-20T20:11:13.627Z,4.70
2018-01-20T20:13:41.468Z,4.83
2018-01-20T20:16:09.339Z,4.87
2018-01-20T20:18:37.891Z,4.64
2018-01-20T20:21:06.334Z,5.03
2018-01-20T20:26:22.377Z,4.54
2018-01-20T20:31:40.978Z,4.40
2018-01-20T20:34:17.106Z,4.37
2018-01-20T20:36:57.539Z,4.21
2018-01-20T20:39:55.259Z,4.14
2018-01-20T21:06:05.488Z,3.48
2018-01-20T21:08:36.208Z,3.44
2018-01-20T21:11:06.208Z,3.80
2018-01-20T21:13:37.736Z,3.74
2018-01-20T21:16:11.146Z,4.06
2018-01-20T21:18:42.081Z,4.04
2018-01-20T21:21:10.245Z,4.09
2018-01-20T21:23:38.230Z,4.24
2018-01-20T21:26:15.815Z,4.12
2018-01-20T21:31:49.696Z,4.03
2018-01-20T21:34:23.272Z,3.96
2018-01-20T21:36:55.464Z,3.78
2018-01-20T21:39:28.033Z,4.24
2018-01-20T21:41:58.614Z,4.09
2018-01-20T21:44:28.190Z,4.06
2018-01-20T21:46:58.307Z,3.69
2018-01-20T21:49:32.241Z,3.75
2018-01-20T21:52:02.941Z,3.55
2018-01-20T21:54:31.426Z,3.52
2018-01-20T21:57:06.710Z,3.84
2018-01-20T21:59:38.435Z,3.58
2018-01-20T22:02:07.792Z,3.85
2018-01-20T22:04:38.033Z,4.20
2018-01-20T22:07:08.895Z,3.90
2018-01-20T22:09:37.795Z,3.66
2018-01-20T22:12:06.135Z,4.18
2018-01-20T22:14:34.330Z,3.74
2018-01-20T22:17:02.336Z,4.04
2018-01-20T22:19:31.402Z,4.01
2018-01-20T22:21:59.659Z,3.91
2018-01-20T22:24:29.452Z,3.76
2018-01-20T22:26:57.019Z,3.87
2018-01-20T22:29:24.734Z,4.19
2018-01-20T22:32:01.334Z,4.01
2018-01-20T22:34:44.639Z,4.17
2018-01-20T22:37:16.279Z,4.43
2018-01-20T22:39:45.129Z,4.62
2018-01-20T22:42:15.351Z,4.56
2018-01-20T22:44:44.742Z,4.32
2018-01-20T22:47:13.080Z,4.47
2018-01-20T22:49:40.703Z,4.15
2018-01-20T22:52:08.805Z,4.43
2018-01-20T22:54:40.806Z,4.19
2018-01-20T22:57:09.485Z,4.37
2018-01-20T22:59:37.177Z,4.37
2018-01-20T23:02:07.433Z,4.22
2018-01-20T23:04:55.180Z,4.33
2018-01-20T23:07:23.290Z,4.11
2018-01-20T23:12:26.066Z,4.19
2018-01-20T23:14:54.870Z,3.94
2018-01-20T23:17:22.900Z,3.98
2018-01-20T23:26:44.949Z,3.08
2018-01-20T23:29:13.463Z,3.63
2018-01-20T23:31:43.167Z,3.33
2018-01-20T23:34:11.450Z,3.86
2018-01-20T23:36:40.446Z,4.03
2018-01-20T23:39:08.330Z,4.11
2018-01-20T23:41:38.546Z,3.77
2018-01-20T23:44:12.203Z,4.21
2018-01-20T23:46:40.214Z,4.32
2018-01-20T23:49:08.855Z,3.67
2018-01-20T23:51:37.347Z,3.94
2018-01-20T23:54:06.251Z,3.70
2018-01-20T23:56:34.825Z,3.47
2018-01-20T23:59:03.163Z,3.99
